sensor_id;sensor_type;location;lat;lon;timestamp;temperature;humidity
20446;DHT22;10382;49.140;9.234;2023-06-22T00:01:17;22.40;99.90
20446;DHT22;10382;49.140;9.234;2023-06-22T00:03:44;22.30;99.90
20446;DHT22;10382;49.140;9.234;2023-06-22T00:06:11;22.30;99.90
20446;DHT22;10382;49.140;9.234;2023-06-22T00:08:37;22.30;99.90
20446;DHT22;10382;49.140;9.234;2023-06-22T00:11:06;22.30;99.90
20446;DHT22;10382;49.140;9.234;2023-06-22T00:13:33;22.40;99.90
20446;DHT22;10382;49.140;9.234;2023-06-22T00:15:59;22.50;99.90
20446;DHT22;10382;49.140;9.234;2023-06-22T00:18:26;22.60;99.90
20446;DHT22;10382;49.140;9.234;2023-06-22T00:20:54;22.60;99.90
20446;DHT22;10382;49.140;9.234;2023-06-22T00:23:23;22.50;99.90
20446;DHT22;10382;49.140;9.234;2023-06-22T00:25:50;22.60;99.90
20446;DHT22;10382;49.140;9.234;2023-06-22T00:28:19;22.60;99.90
20446;DHT22;10382;49.140;9.234;2023-06-22T00:30:45;22.70;99.90
20446;DHT22;10382;49.140;9.234;2023-06-22T00:33:13;22.80;99.90
20446;DHT22;10382;49.140;9.234;2023-06-22T00:35:41;22.90;99.90
20446;DHT22;10382;49.140;9.234;2023-06-22T00:38:08;23.00;99.90
20446;DHT22;10382;49.140;9.234;2023-06-22T00:40:35;23.10;99.90
20446;DHT22;10382;49.140;9.234;2023-06-22T00:43:02;23.10;99.90
20446;DHT22;10382;49.140;9.234;2023-06-22T00:45:31;23.20;99.90
20446;DHT22;10382;49.140;9.234;2023-06-22T00:47:59;23.20;99.90
20446;DHT22;10382;49.140;9.234;2023-06-22T00:50:27;23.20;99.90
20446;DHT22;10382;49.140;9.234;2023-06-22T00:53:00;23.30;99.90
20446;DHT22;10382;49.140;9.234;2023-06-22T00:55:28;23.30;99.90
20446;DHT22;10382;49.140;9.234;2023-06-22T00:57:55;23.30;99.90
20446;DHT22;10382;49.140;9.234;2023-06-22T01:00:23;23.40;99.90
20446;DHT22;10382;49.140;9.234;2023-06-22T01:02:52;23.40;99.90
20446;DHT22;10382;49.140;9.234;2023-06-22T01:05:19;23.50;99.90
20446;DHT22;10382;49.140;9.234;2023-06-22T01:07:56;23.50;99.90
20446;DHT22;10382;49.140;9.234;2023-06-22T01:10:33;23.50;99.90
20446;DHT22;10382;49.140;9.234;2023-06-22T01:13:07;23.40;99.90
20446;DHT22;10382;49.140;9.234;2023-06-22T01:15:39;23.30;99.90
20446;DHT22;10382;49.140;9.234;2023-06-22T01:18:10;23.30;99.90
20446;DHT22;10382;49.140;9.234;2023-06-22T01:20:38;23.30;99.90
20446;DHT22;10382;49.140;9.234;2023-06-22T01:23:10;23.30;99.90
20446;DHT22;10382;49.140;9.234;2023-06-22T01:25:46;23.40;99.90
20446;DHT22;10382;49.140;9.234;2023-06-22T01:28:36;23.30;99.90
20446;DHT22;10382;49.140;9.234;2023-06-22T01:31:04;23.30;99.90
20446;DHT22;10382;49.140;9.234;2023-06-22T01:33:37;23.20;99.90
20446;DHT22;10382;49.140;9.234;2023-06-22T01:36:05;23.10;99.90
20446;DHT22;10382;49.140;9.234;2023-06-22T01:38:33;23.10;99.90
20446;DHT22;10382;49.140;9.234;2023-06-22T01:41:01;23.10;99.90
20446;DHT22;10382;49.140;9.234;2023-06-22T01:43:29;22.90;99.90
20446;DHT22;10382;49.140;9.234;2023-06-22T01:46:01;22.80;99.90
20446;DHT22;10382;49.140;9.234;2023-06-22T01:48:29;22.80;99.90
20446;DHT22;10382;49.140;9.234;2023-06-22T01:50:56;22.60;99.90
20446;DHT22;10382;49.140;9.234;2023-06-22T01:53:24;22.40;99.90
20446;DHT22;10382;49.140;9.234;2023-06-22T01:55:51;22.20;99.90
20446;DHT22;10382;49.140;9.234;2023-06-22T01:58:20;21.90;99.90
20446;DHT22;10382;49.140;9.234;2023-06-22T02:00:50;21.70;99.90
20446;DHT22;10382;49.140;9.234;2023-06-22T02:03:23;21.40;99.90
20446;DHT22;10382;49.140;9.234;2023-06-22T02:05:58;21.30;99.90
20446;DHT22;10382;49.140;9.234;2023-06-22T02:08:30;21.20;99.90
20446;DHT22;10382;49.140;9.234;2023-06-22T02:10:58;21.20;99.90
20446;DHT22;10382;49.140;9.234;2023-06-22T02:13:26;21.20;99.90
20446;DHT22;10382;49.140;9.234;2023-06-22T02:15:53;21.20;99.90
20446;DHT22;10382;49.140;9.234;2023-06-22T02:18:22;21.20;99.90
20446;DHT22;10382;49.140;9.234;2023-06-22T02:20:49;21.30;99.90
20446;DHT22;10382;49.140;9.234;2023-06-22T02:23:16;21.40;99.90
20446;DHT22;10382;49.140;9.234;2023-06-22T02:25:42;21.40;99.90
20446;DHT22;10382;49.140;9.234;2023-06-22T02:28:10;21.50;99.90
20446;DHT22;10382;49.140;9.234;2023-06-22T02:30:37;21.50;99.90
20446;DHT22;10382;49.140;9.234;2023-06-22T02:33:04;21.50;99.90
20446;DHT22;10382;49.140;9.234;2023-06-22T02:35:32;21.50;99.90
20446;DHT22;10382;49.140;9.234;2023-06-22T02:38:01;21.50;99.90
20446;DHT22;10382;49.140;9.234;2023-06-22T02:40:29;21.60;99.90
20446;DHT22;10382;49.140;9.234;2023-06-22T02:42:57;21.40;99.90
20446;DHT22;10382;49.140;9.234;2023-06-22T02:45:28;21.30;99.90
20446;DHT22;10382;49.140;9.234;2023-06-22T02:47:55;21.30;99.90
20446;DHT22;10382;49.140;9.234;2023-06-22T02:50:22;21.30;99.90
20446;DHT22;10382;49.140;9.234;2023-06-22T02:52:50;21.40;99.90
20446;DHT22;10382;49.140;9.234;2023-06-22T02:55:17;21.40;99.90
20446;DHT22;10382;49.140;9.234;2023-06-22T02:57:44;21.50;99.90
20446;DHT22;10382;49.140;9.234;2023-06-22T03:00:14;21.70;99.90
20446;DHT22;10382;49.140;9.234;2023-06-22T03:02:43;21.80;99.90
20446;DHT22;10382;49.140;9.234;2023-06-22T03:05:11;21.90;99.90
20446;DHT22;10382;49.140;9.234;2023-06-22T03:07:40;22.00;99.90
20446;DHT22;10382;49.140;9.234;2023-06-22T03:10:09;22.10;99.90
20446;DHT22;10382;49.140;9.234;2023-06-22T03:12:37;22.20;99.90
20446;DHT22;10382;49.140;9.234;2023-06-22T03:15:05;22.30;99.90
20446;DHT22;10382;49.140;9.234;2023-06-22T03:17:33;22.40;99.90
20446;DHT22;10382;49.140;9.234;2023-06-22T03:19:59;22.50;99.90
20446;DHT22;10382;49.140;9.234;2023-06-22T03:22:26;22.50;99.90
20446;DHT22;10382;49.140;9.234;2023-06-22T03:24:53;22.50;99.90
20446;DHT22;10382;49.140;9.234;2023-06-22T03:27:21;22.60;99.90
20446;DHT22;10382;49.140;9.234;2023-06-22T03:29:48;22.60;99.90
20446;DHT22;10382;49.140;9.234;2023-06-22T03:32:15;22.60;99.90
20446;DHT22;10382;49.140;9.234;2023-06-22T03:34:42;22.60;99.90
20446;DHT22;10382;49.140;9.234;2023-06-22T03:37:13;22.60;99.90
20446;DHT22;10382;49.140;9.234;2023-06-22T03:39:40;22.60;99.90
20446;DHT22;10382;49.140;9.234;2023-06-22T03:42:07;22.70;99.90
20446;DHT22;10382;49.140;9.234;2023-06-22T03:44:35;22.60;99.90
20446;DHT22;10382;49.140;9.234;2023-06-22T03:47:02;22.70;99.90
20446;DHT22;10382;49.140;9.234;2023-06-22T03:49:29;22.70;99.90
20446;DHT22;10382;49.140;9.234;2023-06-22T03:51:56;22.70;99.90
20446;DHT22;10382;49.140;9.234;2023-06-22T03:54:23;22.80;99.90
20446;DHT22;10382;49.140;9.234;2023-06-22T03:56:50;22.80;99.90
20446;DHT22;10382;49.140;9.234;2023-06-22T03:59:16;22.80;99.90
20446;DHT22;10382;49.140;9.234;2023-06-22T04:01:45;22.80;99.90
20446;DHT22;10382;49.140;9.234;2023-06-22T04:04:12;22.80;99.90
20446;DHT22;10382;49.140;9.234;2023-06-22T04:06:39;22.80;99.90
20446;DHT22;10382;49.140;9.234;2023-06-22T04:09:06;22.80;99.90
20446;DHT22;10382;49.140;9.234;2023-06-22T04:11:33;22.90;99.90
20446;DHT22;10382;49.140;9.234;2023-06-22T04:14:00;22.90;99.90
20446;DHT22;10382;49.140;9.234;2023-06-22T04:16:27;23.00;99.90
20446;DHT22;10382;49.140;9.234;2023-06-22T04:18:55;23.10;99.90
20446;DHT22;10382;49.140;9.234;2023-06-22T04:21:22;23.10;99.90
20446;DHT22;10382;49.140;9.234;2023-06-22T04:23:49;23.20;99.90
20446;DHT22;10382;49.140;9.234;2023-06-22T04:26:16;23.30;99.90
20446;DHT22;10382;49.140;9.234;2023-06-22T04:28:42;23.30;99.90
20446;DHT22;10382;49.140;9.234;2023-06-22T04:31:17;23.40;99.90
20446;DHT22;10382;49.140;9.234;2023-06-22T04:33:43;23.60;99.90
20446;DHT22;10382;49.140;9.234;2023-06-22T04:36:12;23.60;99.90
20446;DHT22;10382;49.140;9.234;2023-06-22T04:38:39;23.70;99.90
20446;DHT22;10382;49.140;9.234;2023-06-22T04:41:06;23.80;99.90
20446;DHT22;10382;49.140;9.234;2023-06-22T04:43:35;23.90;99.90
20446;DHT22;10382;49.140;9.234;2023-06-22T04:46:01;24.00;99.90
20446;DHT22;10382;49.140;9.234;2023-06-22T04:48:29;24.10;99.90
20446;DHT22;10382;49.140;9.234;2023-06-22T04:50:58;24.20;99.90
20446;DHT22;10382;49.140;9.234;2023-06-22T04:53:31;24.20;99.90
20446;DHT22;10382;49.140;9.234;2023-06-22T04:55:58;24.30;99.90
20446;DHT22;10382;49.140;9.234;2023-06-22T04:58:25;24.40;99.90
20446;DHT22;10382;49.140;9.234;2023-06-22T05:00:54;24.50;99.90
20446;DHT22;10382;49.140;9.234;2023-06-22T05:03:24;24.50;99.90
20446;DHT22;10382;49.140;9.234;2023-06-22T05:05:51;24.60;99.90
20446;DHT22;10382;49.140;9.234;2023-06-22T05:08:19;24.60;99.90
20446;DHT22;10382;49.140;9.234;2023-06-22T05:10:47;24.70;99.90
20446;DHT22;10382;49.140;9.234;2023-06-22T05:13:14;24.70;99.90
20446;DHT22;10382;49.140;9.234;2023-06-22T05:15:41;24.80;99.90
20446;DHT22;10382;49.140;9.234;2023-06-22T05:18:08;25.00;99.90
20446;DHT22;10382;49.140;9.234;2023-06-22T05:20:34;25.10;99.90
20446;DHT22;10382;49.140;9.234;2023-06-22T05:23:01;25.20;99.90
20446;DHT22;10382;49.140;9.234;2023-06-22T05:25:28;25.30;99.90
20446;DHT22;10382;49.140;9.234;2023-06-22T05:27:59;25.40;99.90
20446;DHT22;10382;49.140;9.234;2023-06-22T05:30:27;25.60;99.90
20446;DHT22;10382;49.140;9.234;2023-06-22T05:32:54;25.70;99.90
20446;DHT22;10382;49.140;9.234;2023-06-22T05:35:21;25.80;99.90
20446;DHT22;10382;49.140;9.234;2023-06-22T05:37:47;25.90;99.90
20446;DHT22;10382;49.140;9.234;2023-06-22T05:40:14;26.00;99.90
20446;DHT22;10382;49.140;9.234;2023-06-22T05:42:41;26.10;99.90
20446;DHT22;10382;49.140;9.234;2023-06-22T05:45:10;26.20;99.90
20446;DHT22;10382;49.140;9.234;2023-06-22T05:47:37;26.30;99.90
20446;DHT22;10382;49.140;9.234;2023-06-22T05:50:05;26.50;99.90
20446;DHT22;10382;49.140;9.234;2023-06-22T05:52:33;26.60;99.90
20446;DHT22;10382;49.140;9.234;2023-06-22T05:55:02;26.80;99.90
20446;DHT22;10382;49.140;9.234;2023-06-22T05:57:29;27.00;99.90
20446;DHT22;10382;49.140;9.234;2023-06-22T05:59:56;27.20;99.90
20446;DHT22;10382;49.140;9.234;2023-06-22T06:02:24;27.30;99.90
20446;DHT22;10382;49.140;9.234;2023-06-22T06:04:51;27.50;99.90
20446;DHT22;10382;49.140;9.234;2023-06-22T06:07:18;27.60;99.90
20446;DHT22;10382;49.140;9.234;2023-06-22T06:09:45;27.80;99.90
20446;DHT22;10382;49.140;9.234;2023-06-22T06:12:13;27.90;99.90
20446;DHT22;10382;49.140;9.234;2023-06-22T06:14:40;28.00;99.90
20446;DHT22;10382;49.140;9.234;2023-06-22T06:17:07;28.10;99.90
20446;DHT22;10382;49.140;9.234;2023-06-22T06:19:35;28.30;99.90
20446;DHT22;10382;49.140;9.234;2023-06-22T06:22:02;28.40;99.90
20446;DHT22;10382;49.140;9.234;2023-06-22T06:24:29;28.40;99.90
20446;DHT22;10382;49.140;9.234;2023-06-22T06:26:56;28.20;99.90
20446;DHT22;10382;49.140;9.234;2023-06-22T06:29:23;28.20;99.90
20446;DHT22;10382;49.140;9.234;2023-06-22T06:31:50;28.20;99.90
20446;DHT22;10382;49.140;9.234;2023-06-22T06:34:17;28.00;99.90
20446;DHT22;10382;49.140;9.234;2023-06-22T06:36:45;27.70;99.90
20446;DHT22;10382;49.140;9.234;2023-06-22T06:39:12;27.90;99.90
20446;DHT22;10382;49.140;9.234;2023-06-22T06:41:39;27.90;99.90
20446;DHT22;10382;49.140;9.234;2023-06-22T06:44:05;28.00;99.90
20446;DHT22;10382;49.140;9.234;2023-06-22T06:46:32;28.20;99.90
20446;DHT22;10382;49.140;9.234;2023-06-22T06:48:59;28.10;99.90
20446;DHT22;10382;49.140;9.234;2023-06-22T06:51:26;27.90;99.90
20446;DHT22;10382;49.140;9.234;2023-06-22T06:53:54;27.70;99.90
20446;DHT22;10382;49.140;9.234;2023-06-22T06:56:21;27.60;99.90
20446;DHT22;10382;49.140;9.234;2023-06-22T06:58:50;27.70;99.90
20446;DHT22;10382;49.140;9.234;2023-06-22T07:01:17;28.10;99.90
20446;DHT22;10382;49.140;9.234;2023-06-22T07:03:45;28.60;99.90
20446;DHT22;10382;49.140;9.234;2023-06-22T07:06:12;29.10;99.90
20446;DHT22;10382;49.140;9.234;2023-06-22T07:08:39;29.50;99.90
20446;DHT22;10382;49.140;9.234;2023-06-22T07:11:08;29.70;99.90
20446;DHT22;10382;49.140;9.234;2023-06-22T07:13:35;29.90;99.90
20446;DHT22;10382;49.140;9.234;2023-06-22T07:16:01;30.00;99.90
20446;DHT22;10382;49.140;9.234;2023-06-22T07:18:28;30.20;99.90
20446;DHT22;10382;49.140;9.234;2023-06-22T07:20:56;30.40;99.90
20446;DHT22;10382;49.140;9.234;2023-06-22T07:23:22;30.30;99.90
20446;DHT22;10382;49.140;9.234;2023-06-22T07:25:49;30.10;99.90
20446;DHT22;10382;49.140;9.234;2023-06-22T07:28:17;29.90;99.90
20446;DHT22;10382;49.140;9.234;2023-06-22T07:30:45;29.40;99.90
20446;DHT22;10382;49.140;9.234;2023-06-22T07:33:12;29.30;99.90
20446;DHT22;10382;49.140;9.234;2023-06-22T07:35:39;29.10;99.90
20446;DHT22;10382;49.140;9.234;2023-06-22T07:38:06;28.80;99.90
20446;DHT22;10382;49.140;9.234;2023-06-22T07:40:34;28.70;99.90
20446;DHT22;10382;49.140;9.234;2023-06-22T07:43:01;28.80;99.90
20446;DHT22;10382;49.140;9.234;2023-06-22T07:45:30;29.00;99.90
20446;DHT22;10382;49.140;9.234;2023-06-22T07:47:59;29.20;99.90
20446;DHT22;10382;49.140;9.234;2023-06-22T07:50:25;29.40;99.90
20446;DHT22;10382;49.140;9.234;2023-06-22T07:52:52;29.50;99.90
20446;DHT22;10382;49.140;9.234;2023-06-22T07:55:19;29.80;99.90
20446;DHT22;10382;49.140;9.234;2023-06-22T07:57:48;30.00;99.90
20446;DHT22;10382;49.140;9.234;2023-06-22T08:00:17;30.20;99.90
20446;DHT22;10382;49.140;9.234;2023-06-22T08:02:47;30.20;99.90
20446;DHT22;10382;49.140;9.234;2023-06-22T08:05:14;30.30;99.90
20446;DHT22;10382;49.140;9.234;2023-06-22T08:07:43;30.40;99.90
20446;DHT22;10382;49.140;9.234;2023-06-22T08:10:11;30.10;99.90
20446;DHT22;10382;49.140;9.234;2023-06-22T08:12:38;29.90;99.90
20446;DHT22;10382;49.140;9.234;2023-06-22T08:15:06;30.00;99.90
20446;DHT22;10382;49.140;9.234;2023-06-22T08:17:35;30.20;99.90
20446;DHT22;10382;49.140;9.234;2023-06-22T08:20:04;30.40;99.90
20446;DHT22;10382;49.140;9.234;2023-06-22T08:22:35;30.50;99.90
20446;DHT22;10382;49.140;9.234;2023-06-22T08:25:02;30.20;99.90
20446;DHT22;10382;49.140;9.234;2023-06-22T08:27:29;30.10;99.90
20446;DHT22;10382;49.140;9.234;2023-06-22T08:29:57;30.20;99.90
20446;DHT22;10382;49.140;9.234;2023-06-22T08:32:24;30.30;99.90
20446;DHT22;10382;49.140;9.234;2023-06-22T08:34:52;30.40;99.90
20446;DHT22;10382;49.140;9.234;2023-06-22T08:37:20;30.90;99.90
20446;DHT22;10382;49.140;9.234;2023-06-22T08:39:50;31.20;99.90
20446;DHT22;10382;49.140;9.234;2023-06-22T08:42:17;31.20;99.90
20446;DHT22;10382;49.140;9.234;2023-06-22T08:44:44;30.90;99.90
20446;DHT22;10382;49.140;9.234;2023-06-22T08:47:11;30.50;99.90
20446;DHT22;10382;49.140;9.234;2023-06-22T08:49:37;30.50;99.90
20446;DHT22;10382;49.140;9.234;2023-06-22T08:52:05;30.60;99.90
20446;DHT22;10382;49.140;9.234;2023-06-22T08:54:34;30.90;99.90
20446;DHT22;10382;49.140;9.234;2023-06-22T08:57:01;30.90;99.90
20446;DHT22;10382;49.140;9.234;2023-06-22T08:59:28;30.90;99.90
20446;DHT22;10382;49.140;9.234;2023-06-22T09:01:55;31.10;99.90
20446;DHT22;10382;49.140;9.234;2023-06-22T09:04:22;31.20;99.90
20446;DHT22;10382;49.140;9.234;2023-06-22T09:06:49;31.40;99.90
20446;DHT22;10382;49.140;9.234;2023-06-22T09:09:18;31.60;99.90
20446;DHT22;10382;49.140;9.234;2023-06-22T09:11:47;31.70;99.90
20446;DHT22;10382;49.140;9.234;2023-06-22T09:14:14;31.40;99.90
20446;DHT22;10382;49.140;9.234;2023-06-22T09:16:41;31.40;99.90
20446;DHT22;10382;49.140;9.234;2023-06-22T09:19:08;31.30;99.90
20446;DHT22;10382;49.140;9.234;2023-06-22T09:21:34;31.50;99.90
20446;DHT22;10382;49.140;9.234;2023-06-22T09:24:02;31.90;99.90
20446;DHT22;10382;49.140;9.234;2023-06-22T09:26:29;32.30;99.90
20446;DHT22;10382;49.140;9.234;2023-06-22T09:28:57;32.50;99.90
20446;DHT22;10382;49.140;9.234;2023-06-22T09:31:24;32.60;99.90
20446;DHT22;10382;49.140;9.234;2023-06-22T09:33:52;32.50;99.90
20446;DHT22;10382;49.140;9.234;2023-06-22T09:36:19;32.10;99.90
20446;DHT22;10382;49.140;9.234;2023-06-22T09:38:48;31.80;99.90
20446;DHT22;10382;49.140;9.234;2023-06-22T09:41:21;31.60;99.90
20446;DHT22;10382;49.140;9.234;2023-06-22T09:43:48;31.60;99.90
20446;DHT22;10382;49.140;9.234;2023-06-22T09:46:16;31.60;99.90
20446;DHT22;10382;49.140;9.234;2023-06-22T09:48:43;31.40;99.90
20446;DHT22;10382;49.140;9.234;2023-06-22T09:51:11;31.70;99.90
20446;DHT22;10382;49.140;9.234;2023-06-22T09:53:38;32.10;99.90
20446;DHT22;10382;49.140;9.234;2023-06-22T09:56:05;32.20;99.90
20446;DHT22;10382;49.140;9.234;2023-06-22T09:58:31;32.10;99.90
20446;DHT22;10382;49.140;9.234;2023-06-22T10:00:58;31.90;99.90
20446;DHT22;10382;49.140;9.234;2023-06-22T10:03:26;31.60;99.90
20446;DHT22;10382;49.140;9.234;2023-06-22T10:05:53;31.60;99.90
20446;DHT22;10382;49.140;9.234;2023-06-22T10:08:20;31.90;99.90
20446;DHT22;10382;49.140;9.234;2023-06-22T10:10:47;32.30;99.90
20446;DHT22;10382;49.140;9.234;2023-06-22T10:13:14;32.50;99.90
20446;DHT22;10382;49.140;9.234;2023-06-22T10:15:42;32.70;99.90
20446;DHT22;10382;49.140;9.234;2023-06-22T10:18:11;33.10;99.90
20446;DHT22;10382;49.140;9.234;2023-06-22T10:20:39;33.40;99.90
20446;DHT22;10382;49.140;9.234;2023-06-22T10:23:06;33.70;99.90
20446;DHT22;10382;49.140;9.234;2023-06-22T10:25:32;34.00;99.90
20446;DHT22;10382;49.140;9.234;2023-06-22T10:27:59;34.20;99.90
20446;DHT22;10382;49.140;9.234;2023-06-22T10:30:26;34.60;98.90
20446;DHT22;10382;49.140;9.234;2023-06-22T10:32:54;34.90;98.00
20446;DHT22;10382;49.140;9.234;2023-06-22T10:35:21;34.70;97.40
20446;DHT22;10382;49.140;9.234;2023-06-22T10:37:49;34.80;96.60
20446;DHT22;10382;49.140;9.234;2023-06-22T10:40:17;34.80;96.50
20446;DHT22;10382;49.140;9.234;2023-06-22T10:42:44;34.40;96.40
20446;DHT22;10382;49.140;9.234;2023-06-22T10:45:11;33.70;97.70
20446;DHT22;10382;49.140;9.234;2023-06-22T10:47:39;33.30;98.70
20446;DHT22;10382;49.140;9.234;2023-06-22T10:50:08;33.50;99.90
20446;DHT22;10382;49.140;9.234;2023-06-22T10:52:34;33.40;99.10
20446;DHT22;10382;49.140;9.234;2023-06-22T10:55:03;33.40;99.50
20446;DHT22;10382;49.140;9.234;2023-06-22T10:57:30;33.30;99.70
20446;DHT22;10382;49.140;9.234;2023-06-22T10:59:57;33.60;98.90
20446;DHT22;10382;49.140;9.234;2023-06-22T11:02:24;34.10;98.30
20446;DHT22;10382;49.140;9.234;2023-06-22T11:04:51;34.60;97.30
20446;DHT22;10382;49.140;9.234;2023-06-22T11:07:18;34.70;96.90
20446;DHT22;10382;49.140;9.234;2023-06-22T11:09:45;35.00;96.90
20446;DHT22;10382;49.140;9.234;2023-06-22T11:12:13;35.30;96.70
20446;DHT22;10382;49.140;9.234;2023-06-22T11:14:40;35.60;96.10
20446;DHT22;10382;49.140;9.234;2023-06-22T11:17:06;35.70;94.40
20446;DHT22;10382;49.140;9.234;2023-06-22T11:19:33;35.60;93.60
20446;DHT22;10382;49.140;9.234;2023-06-22T11:22:00;35.30;93.70
20446;DHT22;10382;49.140;9.234;2023-06-22T11:24:27;35.10;94.00
20446;DHT22;10382;49.140;9.234;2023-06-22T11:26:54;35.20;94.60
20446;DHT22;10382;49.140;9.234;2023-06-22T11:29:22;35.30;94.10
20446;DHT22;10382;49.140;9.234;2023-06-22T11:31:49;35.40;93.40
20446;DHT22;10382;49.140;9.234;2023-06-22T11:34:16;35.70;93.70
20446;DHT22;10382;49.140;9.234;2023-06-22T11:36:44;35.80;93.00
20446;DHT22;10382;49.140;9.234;2023-06-22T11:39:11;36.10;91.90
20446;DHT22;10382;49.140;9.234;2023-06-22T11:41:40;36.30;92.00
20446;DHT22;10382;49.140;9.234;2023-06-22T11:44:07;36.50;90.60
20446;DHT22;10382;49.140;9.234;2023-06-22T11:46:35;36.20;90.90
20446;DHT22;10382;49.140;9.234;2023-06-22T11:49:02;35.60;91.50
20446;DHT22;10382;49.140;9.234;2023-06-22T11:51:29;35.50;92.10
20446;DHT22;10382;49.140;9.234;2023-06-22T11:53:57;35.50;92.80
20446;DHT22;10382;49.140;9.234;2023-06-22T11:56:24;35.40;92.10
20446;DHT22;10382;49.140;9.234;2023-06-22T11:58:51;35.20;92.70
20446;DHT22;10382;49.140;9.234;2023-06-22T12:01:19;35.30;92.30
20446;DHT22;10382;49.140;9.234;2023-06-22T12:03:48;35.20;92.30
20446;DHT22;10382;49.140;9.234;2023-06-22T12:06:15;35.20;93.30
20446;DHT22;10382;49.140;9.234;2023-06-22T12:08:42;35.30;92.40
20446;DHT22;10382;49.140;9.234;2023-06-22T12:11:09;35.40;92.40
20446;DHT22;10382;49.140;9.234;2023-06-22T12:13:35;35.40;93.10
20446;DHT22;10382;49.140;9.234;2023-06-22T12:16:02;35.30;91.70
20446;DHT22;10382;49.140;9.234;2023-06-22T12:18:29;35.20;91.70
20446;DHT22;10382;49.140;9.234;2023-06-22T12:20:57;35.20;92.40
20446;DHT22;10382;49.140;9.234;2023-06-22T12:23:24;35.20;91.80
20446;DHT22;10382;49.140;9.234;2023-06-22T12:25:51;35.00;92.30
20446;DHT22;10382;49.140;9.234;2023-06-22T12:28:18;34.90;92.40
20446;DHT22;10382;49.140;9.234;2023-06-22T12:30:45;34.80;92.70
20446;DHT22;10382;49.140;9.234;2023-06-22T12:33:12;34.80;93.30
20446;DHT22;10382;49.140;9.234;2023-06-22T12:35:39;34.80;93.60
20446;DHT22;10382;49.140;9.234;2023-06-22T12:38:07;34.70;94.00
20446;DHT22;10382;49.140;9.234;2023-06-22T12:40:34;34.50;94.10
20446;DHT22;10382;49.140;9.234;2023-06-22T12:43:01;34.30;94.10
20446;DHT22;10382;49.140;9.234;2023-06-22T12:45:28;34.20;95.40
20446;DHT22;10382;49.140;9.234;2023-06-22T12:47:59;34.10;95.60
20446;DHT22;10382;49.140;9.234;2023-06-22T12:50:26;34.10;96.40
20446;DHT22;10382;49.140;9.234;2023-06-22T12:52:53;34.10;96.70
20446;DHT22;10382;49.140;9.234;2023-06-22T12:55:21;34.20;96.50
20446;DHT22;10382;49.140;9.234;2023-06-22T12:57:48;34.30;96.80
20446;DHT22;10382;49.140;9.234;2023-06-22T13:00:15;34.30;95.20
20446;DHT22;10382;49.140;9.234;2023-06-22T13:02:42;34.30;96.50
20446;DHT22;10382;49.140;9.234;2023-06-22T13:05:09;34.30;96.40
20446;DHT22;10382;49.140;9.234;2023-06-22T13:07:36;34.30;96.30
20446;DHT22;10382;49.140;9.234;2023-06-22T13:10:04;34.30;96.70
20446;DHT22;10382;49.140;9.234;2023-06-22T13:12:32;34.20;96.20
20446;DHT22;10382;49.140;9.234;2023-06-22T13:14:59;34.30;95.60
20446;DHT22;10382;49.140;9.234;2023-06-22T13:17:26;34.30;96.30
20446;DHT22;10382;49.140;9.234;2023-06-22T13:19:53;34.40;96.10
20446;DHT22;10382;49.140;9.234;2023-06-22T13:22:30;34.60;96.30
20446;DHT22;10382;49.140;9.234;2023-06-22T13:24:57;34.80;96.90
20446;DHT22;10382;49.140;9.234;2023-06-22T13:27:25;34.60;96.00
20446;DHT22;10382;49.140;9.234;2023-06-22T13:29:53;34.50;96.90
20446;DHT22;10382;49.140;9.234;2023-06-22T13:32:20;34.40;98.10
20446;DHT22;10382;49.140;9.234;2023-06-22T13:34:46;34.50;98.20
20446;DHT22;10382;49.140;9.234;2023-06-22T13:37:13;34.20;98.60
20446;DHT22;10382;49.140;9.234;2023-06-22T13:39:41;33.90;99.50
20446;DHT22;10382;49.140;9.234;2023-06-22T13:42:08;33.60;99.90
20446;DHT22;10382;49.140;9.234;2023-06-22T13:44:35;33.50;99.90
20446;DHT22;10382;49.140;9.234;2023-06-22T13:47:03;33.60;99.90
20446;DHT22;10382;49.140;9.234;2023-06-22T13:49:31;33.60;99.90
20446;DHT22;10382;49.140;9.234;2023-06-22T13:51:58;33.40;99.90
20446;DHT22;10382;49.140;9.234;2023-06-22T13:54:25;33.30;99.90
20446;DHT22;10382;49.140;9.234;2023-06-22T13:56:52;33.20;99.90
20446;DHT22;10382;49.140;9.234;2023-06-22T13:59:18;33.40;99.90
20446;DHT22;10382;49.140;9.234;2023-06-22T14:01:46;33.50;99.90
20446;DHT22;10382;49.140;9.234;2023-06-22T14:04:14;33.70;99.90
20446;DHT22;10382;49.140;9.234;2023-06-22T14:06:41;33.80;99.90
20446;DHT22;10382;49.140;9.234;2023-06-22T14:09:08;33.90;99.90
20446;DHT22;10382;49.140;9.234;2023-06-22T14:11:35;34.00;99.70
20446;DHT22;10382;49.140;9.234;2023-06-22T14:14:02;34.20;99.60
20446;DHT22;10382;49.140;9.234;2023-06-22T14:16:29;34.60;98.40
20446;DHT22;10382;49.140;9.234;2023-06-22T14:18:56;35.00;96.60
20446;DHT22;10382;49.140;9.234;2023-06-22T14:21:26;35.40;95.10
20446;DHT22;10382;49.140;9.234;2023-06-22T14:23:52;35.80;92.30
20446;DHT22;10382;49.140;9.234;2023-06-22T14:26:19;35.90;90.60
20446;DHT22;10382;49.140;9.234;2023-06-22T14:28:48;35.70;87.50
20446;DHT22;10382;49.140;9.234;2023-06-22T14:31:16;35.60;89.50
20446;DHT22;10382;49.140;9.234;2023-06-22T14:33:46;35.50;90.50
20446;DHT22;10382;49.140;9.234;2023-06-22T14:36:13;35.60;91.40
20446;DHT22;10382;49.140;9.234;2023-06-22T14:38:42;35.40;88.40
20446;DHT22;10382;49.140;9.234;2023-06-22T14:41:08;35.30;88.60
20446;DHT22;10382;49.140;9.234;2023-06-22T14:43:35;35.10;88.70
20446;DHT22;10382;49.140;9.234;2023-06-22T14:46:02;35.00;88.80
20446;DHT22;10382;49.140;9.234;2023-06-22T14:48:29;35.00;90.00
20446;DHT22;10382;49.140;9.234;2023-06-22T14:50:57;35.00;88.80
20446;DHT22;10382;49.140;9.234;2023-06-22T14:53:25;34.70;89.10
20446;DHT22;10382;49.140;9.234;2023-06-22T14:55:54;34.50;90.80
20446;DHT22;10382;49.140;9.234;2023-06-22T14:58:21;34.30;91.80
20446;DHT22;10382;49.140;9.234;2023-06-22T15:00:48;34.10;93.00
20446;DHT22;10382;49.140;9.234;2023-06-22T15:03:15;34.10;93.90
20446;DHT22;10382;49.140;9.234;2023-06-22T15:05:47;34.20;94.60
20446;DHT22;10382;49.140;9.234;2023-06-22T15:08:14;34.30;94.30
20446;DHT22;10382;49.140;9.234;2023-06-22T15:10:41;34.40;94.30
20446;DHT22;10382;49.140;9.234;2023-06-22T15:13:09;34.50;93.20
20446;DHT22;10382;49.140;9.234;2023-06-22T15:15:36;34.60;93.90
20446;DHT22;10382;49.140;9.234;2023-06-22T15:18:03;34.60;93.40
20446;DHT22;10382;49.140;9.234;2023-06-22T15:20:30;34.60;93.70
20446;DHT22;10382;49.140;9.234;2023-06-22T15:22:57;34.60;93.40
20446;DHT22;10382;49.140;9.234;2023-06-22T15:25:23;34.80;94.00
20446;DHT22;10382;49.140;9.234;2023-06-22T15:27:51;34.80;94.30
20446;DHT22;10382;49.140;9.234;2023-06-22T15:30:19;34.90;92.90
20446;DHT22;10382;49.140;9.234;2023-06-22T15:32:46;35.00;93.50